Time;durP1;ratioP1;P1;durP2;ratioP2;P2;SDS_P1;SDS_P2;PMS_P1;PMS_P2;Temp;Humidity;BMP_temperature;BMP_pressure;BME280_temperature;BME280_humidity;BME280_pressure;Samples;Min_cycle;Max_cycle;Signal;HPM_P1;HPM_P2
2022/04/21 00:00:36;;;;;;;21.02;10.43;;;;;;;;;;2097754;28;20045;-66
2022/04/21 00:01:38;;;;;;;14.98;9.32;;;;;;;;;;2098241;28;20044;-66
2022/04/21 00:02:40;;;;;;;16.30;9.75;;;;;;;;;;2098088;28;20045;-66
2022/04/21 00:03:41;;;;;;;18.00;10.15;;;;;;;;;;2097995;28;20054;-66
2022/04/21 00:04:42;;;;;;;16.70;8.38;;;;;;;;;;2098298;28;20382;-44
2022/04/21 00:05:44;;;;;;;16.63;10.20;;;;;;;;;;2098112;28;20125;-44
2022/04/21 00:06:45;;;;;;;17.80;10.45;;;;;;;;;;2098068;28;20055;-44
2022/04/21 00:07:48;;;;;;;18.55;9.77;;;;;;;;;;2098108;28;20523;-44
2022/04/21 00:08:49;;;;;;;16.13;9.88;;;;;;;;;;2097908;28;20451;-44
2022/04/21 00:09:50;;;;;;;16.45;9.90;;;;;;;;;;2098217;28;20058;-44
2022/04/21 00:10:51;;;;;;;16.40;9.27;;;;;;;;;;2098003;28;20078;-44
2022/04/21 00:11:52;;;;;;;16.38;9.98;;;;;;;;;;2098176;28;20127;-44
2022/04/21 00:12:54;;;;;;;15.60;9.20;;;;;;;;;;2098221;28;20049;-44
2022/04/21 00:13:55;;;;;;;15.90;8.82;;;;;;;;;;2097894;28;20666;-44
2022/04/21 00:14:57;;;;;;;16.48;8.90;;;;;;;;;;2097999;28;20554;-44
2022/04/21 00:15:58;;;;;;;17.05;10.32;;;;;;;;;;2097446;28;20097;-44
2022/04/21 00:16:59;;;;;;;16.33;9.40;;;;;;;;;;2097759;28;20185;-44
2022/04/21 00:18:01;;;;;;;18.00;9.40;;;;;;;;;;2098122;28;20734;-44
2022/04/21 00:19:01;;;;;;;15.50;8.95;;;;;;;;;;2091903;28;20049;-44
2022/04/21 00:20:03;;;;;;;16.13;9.17;;;;;;;;;;2089703;28;20491;-44
2022/04/21 00:21:05;;;;;;;15.40;9.35;;;;;;;;;;2089785;28;20072;-44
2022/04/21 00:23:26;;;;;;;17.27;9.90;;;;;;;;;;2090030;28;19921;-44
2022/04/21 00:24:27;;;;;;;15.82;8.68;;;;;;;;;;2089813;28;20182;-44
2022/04/21 00:25:28;;;;;;;15.82;9.25;;;;;;;;;;2089755;28;20079;-44
2022/04/21 00:26:29;;;;;;;15.40;9.70;;;;;;;;;;2089745;28;20040;-44
2022/04/21 00:27:30;;;;;;;17.23;9.18;;;;;;;;;;2089623;28;20056;-44
2022/04/21 00:28:32;;;;;;;18.67;10.13;;;;;;;;;;2089577;28;20482;-44
2022/04/21 00:29:33;;;;;;;16.25;9.57;;;;;;;;;;2089622;28;20064;-44
2022/04/21 00:30:36;;;;;;;15.23;9.18;;;;;;;;;;2089626;28;20068;-44
2022/04/21 00:31:37;;;;;;;17.80;9.98;;;;;;;;;;2089583;28;20060;-45
2022/04/21 00:32:40;;;;;;;15.05;8.55;;;;;;;;;;2089620;28;20466;-44
2022/04/21 00:33:41;;;;;;;15.55;9.48;;;;;;;;;;2089667;28;20049;-44
2022/04/21 00:34:42;;;;;;;16.60;9.18;;;;;;;;;;2089677;28;20568;-44
2022/04/21 00:35:43;;;;;;;16.37;9.37;;;;;;;;;;2089673;28;20082;-44
2022/04/21 00:36:44;;;;;;;15.80;8.98;;;;;;;;;;2089573;28;20144;-44
2022/04/21 00:37:46;;;;;;;16.27;9.07;;;;;;;;;;2089586;28;20045;-45
2022/04/21 00:38:48;;;;;;;17.50;10.27;;;;;;;;;;2089417;28;20569;-45
2022/04/21 00:39:50;;;;;;;13.70;8.18;;;;;;;;;;2089723;28;20128;-44
2022/04/21 00:40:51;;;;;;;16.33;9.88;;;;;;;;;;2089593;28;20127;-44
2022/04/21 00:41:55;;;;;;;16.75;9.25;;;;;;;;;;2089704;28;20132;-44
2022/04/21 00:42:57;;;;;;;15.45;9.13;;;;;;;;;;2089567;28;20127;-44
2022/04/21 00:43:58;;;;;;;17.08;9.15;;;;;;;;;;2089620;28;20084;-44
2022/04/21 00:44:59;;;;;;;17.07;9.23;;;;;;;;;;2089430;28;20084;-44
2022/04/21 00:46:00;;;;;;;17.60;9.68;;;;;;;;;;2089334;28;20057;-44
2022/04/21 00:47:02;;;;;;;17.67;10.15;;;;;;;;;;2089368;28;20045;-44
2022/04/21 00:48:04;;;;;;;15.80;9.32;;;;;;;;;;2089531;28;20045;-44
2022/04/21 00:49:06;;;;;;;17.13;9.82;;;;;;;;;;2089451;28;20045;-44
2022/04/21 00:50:09;;;;;;;17.88;10.20;;;;;;;;;;2089528;28;20049;-44
2022/04/21 00:51:11;;;;;;;17.92;10.02;;;;;;;;;;2089571;28;20102;-44
2022/04/21 00:52:13;;;;;;;17.75;10.15;;;;;;;;;;2089653;28;20194;-44
2022/04/21 00:53:15;;;;;;;17.55;8.77;;;;;;;;;;2089618;28;20120;-44
2022/04/21 00:54:16;;;;;;;18.65;10.40;;;;;;;;;;2089670;28;20045;-44
2022/04/21 00:55:18;;;;;;;13.85;8.50;;;;;;;;;;2089473;28;20045;-44
2022/04/21 00:56:19;;;;;;;;;;;;;;;;;;2093888;28;20132;-44
2022/04/21 00:57:20;;;;;;;16.38;10.02;;;;;;;;;;2097870;28;19928;-44
2022/04/21 00:58:21;;;;;;;18.40;10.57;;;;;;;;;;2097822;28;20127;-44
2022/04/21 00:59:23;;;;;;;17.20;9.43;;;;;;;;;;2097801;28;20054;-44
2022/04/21 01:00:24;;;;;;;;;;;;;;;;;;2098221;28;20045;-44
2022/04/21 01:02:54;;;;;;;17.08;9.73;;;;;;;;;;2080074;28;20053;-44
2022/04/21 01:03:55;;;;;;;16.08;9.43;;;;;;;;;;2091117;28;20051;-45
2022/04/21 01:04:56;;;;;;;16.40;9.73;;;;;;;;;;2097589;28;20132;-44
2022/04/21 01:05:58;;;;;;;16.17;9.27;;;;;;;;;;2097637;28;20051;-44
2022/04/21 01:06:58;;;;;;;14.93;9.75;;;;;;;;;;2097512;28;20739;-45
2022/04/21 01:08:01;;;;;;;15.02;9.10;;;;;;;;;;2097486;28;20048;-44
2022/04/21 01:09:01;;;;;;;17.50;9.93;;;;;;;;;;2097473;28;20087;-45
2022/04/21 01:10:04;;;;;;;14.17;8.87;;;;;;;;;;2097527;28;20129;-44
2022/04/21 01:11:05;;;;;;;18.60;10.30;;;;;;;;;;2097456;28;20409;-45
2022/04/21 01:12:09;;;;;;;16.33;9.82;;;;;;;;;;2097733;28;20128;-64
2022/04/21 01:13:11;;;;;;;18.17;10.00;;;;;;;;;;2097510;28;20503;-66
2022/04/21 01:14:13;;;;;;;18.42;9.82;;;;;;;;;;2097419;28;20048;-64
2022/04/21 01:15:14;;;;;;;17.45;10.52;;;;;;;;;;2097552;28;20052;-65
2022/04/21 01:16:15;;;;;;;17.20;10.20;;;;;;;;;;2097471;28;20519;-65
2022/04/21 01:17:17;;;;;;;16.77;9.45;;;;;;;;;;2097599;28;20049;-66
2022/04/21 01:18:26;;;;;;;16.75;10.02;;;;;;;;;;2097681;28;20067;-65
2022/04/21 01:19:27;;;;;;;15.63;9.63;;;;;;;;;;2089303;28;20080;-66
2022/04/21 01:20:29;;;;;;;15.32;9.45;;;;;;;;;;2089178;28;20041;-66
2022/04/21 01:21:30;;;;;;;20.52;10.18;;;;;;;;;;2089081;28;20475;-64
2022/04/21 01:22:31;;;;;;;17.40;10.07;;;;;;;;;;2089253;28;20060;-64
2022/04/21 01:23:32;;;;;;;13.63;8.88;;;;;;;;;;2089209;28;20110;-65
2022/04/21 01:24:33;;;;;;;17.75;10.80;;;;;;;;;;2089119;28;20055;-65
2022/04/21 01:25:39;;;;;;;19.52;10.15;;;;;;;;;;2089064;28;20080;-65
2022/04/21 01:26:39;;;;;;;16.95;9.43;;;;;;;;;;2089270;28;20105;-45
2022/04/21 01:27:41;;;;;;;16.30;9.67;;;;;;;;;;2088908;28;20114;-44
2022/04/21 01:28:42;;;;;;;18.17;10.30;;;;;;;;;;2089188;28;20049;-44
2022/04/21 01:29:43;;;;;;;16.88;10.13;;;;;;;;;;2089162;28;20049;-44
2022/04/21 01:30:45;;;;;;;17.95;10.75;;;;;;;;;;2089214;28;20049;-44
2022/04/21 01:31:46;;;;;;;16.20;9.02;;;;;;;;;;2089246;28;20101;-44
2022/04/21 01:32:49;;;;;;;15.75;9.65;;;;;;;;;;2089055;28;20049;-44
2022/04/21 01:33:50;;;;;;;17.70;9.48;;;;;;;;;;2088968;28;20055;-45
2022/04/21 01:34:51;;;;;;;16.53;9.57;;;;;;;;;;2089095;28;20132;-44
2022/04/21 01:35:53;;;;;;;14.48;9.23;;;;;;;;;;2089036;28;20486;-44
2022/04/21 01:41:10;;;;;;;15.55;9.23;;;;;;;;;;2089107;28;20080;-44
2022/04/21 01:42:14;;;;;;;16.55;9.68;;;;;;;;;;2089075;28;20453;-44
2022/04/21 01:43:15;;;;;;;16.45;9.32;;;;;;;;;;2089091;28;20115;-44
2022/04/21 01:44:16;;;;;;;17.00;10.15;;;;;;;;;;2089109;28;20051;-45
2022/04/21 01:45:17;;;;;;;15.43;9.00;;;;;;;;;;2088985;28;20083;-45
2022/04/21 01:46:19;;;;;;;16.50;10.05;;;;;;;;;;2088869;28;20444;-44
2022/04/21 01:47:20;;;;;;;18.52;10.20;;;;;;;;;;2089020;28;20102;-44
2022/04/21 01:48:21;;;;;;;17.88;9.35;;;;;;;;;;2089026;28;20045;-44
2022/04/21 01:49:22;;;;;;;16.20;10.18;;;;;;;;;;2088995;28;20128;-44
2022/04/21 01:50:23;;;;;;;17.00;9.98;;;;;;;;;;2089059;28;20075;-44
2022/04/21 01:51:24;;;;;;;16.17;9.95;;;;;;;;;;2089056;28;20159;-45
2022/04/21 01:52:26;;;;;;;18.38;10.43;;;;;;;;;;2091700;28;20055;-44
2022/04/21 01:53:28;;;;;;;17.00;10.00;;;;;;;;;;2097254;28;20128;-44
2022/04/21 01:54:29;;;;;;;16.60;9.60;;;;;;;;;;2097291;28;20135;-44
2022/04/21 01:55:30;;;;;;;16.33;9.43;;;;;;;;;;2097228;28;20044;-44
2022/04/21 01:56:31;;;;;;;16.65;9.63;;;;;;;;;;2097321;28;20058;-44
2022/04/21 01:57:33;;;;;;;16.55;9.57;;;;;;;;;;2097103;28;20052;-44
2022/04/21 01:58:33;;;;;;;17.52;9.73;;;;;;;;;;2097243;28;20127;-45
2022/04/21 01:59:35;;;;;;;17.80;10.30;;;;;;;;;;2097241;28;20178;-44
2022/04/21 02:00:36;;;;;;;18.90;10.93;;;;;;;;;;2097289;28;20048;-44
2022/04/21 02:01:37;;;;;;;16.03;9.10;;;;;;;;;;2097239;28;20490;-45
2022/04/21 02:02:39;;;;;;;15.48;9.90;;;;;;;;;;2097186;28;20778;-44
2022/04/21 02:03:40;;;;;;;16.70;9.98;;;;;;;;;;2097117;28;20059;-44
2022/04/21 02:04:41;;;;;;;15.80;9.38;;;;;;;;;;2097279;28;20183;-44
2022/04/21 02:05:42;;;;;;;14.35;8.90;;;;;;;;;;2097032;28;20095;-44
2022/04/21 02:06:43;;;;;;;15.98;9.43;;;;;;;;;;2097366;28;20128;-44
2022/04/21 02:07:45;;;;;;;13.38;8.57;;;;;;;;;;2097381;28;20052;-45
2022/04/21 02:08:46;;;;;;;16.48;9.55;;;;;;;;;;2097157;28;20506;-44
2022/04/21 02:09:48;;;;;;;16.92;9.52;;;;;;;;;;2097104;28;20109;-45
2022/04/21 02:10:49;;;;;;;17.77;10.48;;;;;;;;;;2097196;28;20053;-44
2022/04/21 02:11:51;;;;;;;16.75;9.90;;;;;;;;;;2097282;28;20049;-44
2022/04/21 02:12:52;;;;;;;14.43;9.38;;;;;;;;;;2097070;28;20469;-44
2022/04/21 02:13:53;;;;;;;15.07;9.60;;;;;;;;;;2097168;28;20056;-44
2022/04/21 02:14:54;;;;;;;14.43;8.73;;;;;;;;;;2097139;28;20136;-44
2022/04/21 02:15:55;;;;;;;16.58;9.45;;;;;;;;;;2097186;28;20045;-44
2022/04/21 02:16:56;;;;;;;16.15;9.30;;;;;;;;;;2097235;28;20105;-45
2022/04/21 02:17:59;;;;;;;14.57;8.95;;;;;;;;;;2097061;28;20127;-44
2022/04/21 02:19:00;;;;;;;16.05;9.25;;;;;;;;;;2096775;28;20048;-44
2022/04/21 02:20:01;;;;;;;14.50;9.02;;;;;;;;;;2097015;28;20044;-44
2022/04/21 02:21:02;;;;;;;17.10;9.80;;;;;;;;;;2097143;28;20048;-44
2022/04/21 02:22:04;;;;;;;14.85;8.98;;;;;;;;;;2097086;28;20050;-44
2022/04/21 02:23:05;;;;;;;16.65;10.50;;;;;;;;;;2097204;28;20147;-44
2022/04/21 02:24:06;;;;;;;16.50;9.45;;;;;;;;;;2097053;28;20129;-44
2022/04/21 02:25:09;;;;;;;13.77;8.70;;;;;;;;;;2097112;28;20528;-44
2022/04/21 02:26:11;;;;;;;18.20;9.63;;;;;;;;;;2097065;28;20101;-44
2022/04/21 02:27:13;;;;;;;15.00;9.30;;;;;;;;;;2097135;28;20397;-44
2022/04/21 02:28:14;;;;;;;16.65;9.23;;;;;;;;;;2097131;28;20127;-44
2022/04/21 02:29:15;;;;;;;17.40;9.32;;;;;;;;;;2096992;28;20040;-45
2022/04/21 02:30:17;;;;;;;16.05;8.63;;;;;;;;;;2097094;28;20581;-44
2022/04/21 02:31:18;;;;;;;19.67;9.82;;;;;;;;;;2096994;28;20049;-44
2022/04/21 02:32:19;;;;;;;15.60;9.32;;;;;;;;;;2097214;28;20049;-44
2022/04/21 02:33:21;;;;;;;16.60;9.43;;;;;;;;;;2097093;28;20392;-45
2022/04/21 02:34:22;;;;;;;17.70;10.30;;;;;;;;;;2096947;28;20478;-45
2022/04/21 02:35:23;;;;;;;16.95;9.75;;;;;;;;;;2097070;28;20127;-44
2022/04/21 02:36:24;;;;;;;14.73;8.77;;;;;;;;;;2097135;28;20401;-44
2022/04/21 02:37:25;;;;;;;16.90;10.00;;;;;;;;;;2097021;28;20040;-44
2022/04/21 02:38:27;;;;;;;17.58;9.85;;;;;;;;;;2097049;28;20124;-44
2022/04/21 02:39:28;;;;;;;16.85;9.27;;;;;;;;;;2097226;28;20047;-45
2022/04/21 02:40:29;;;;;;;20.20;11.07;;;;;;;;;;2098782;28;20044;-45
2022/04/21 02:41:30;;;;;;;16.92;10.30;;;;;;;;;;2098462;28;20378;-44
2022/04/21 02:42:31;;;;;;;17.00;9.75;;;;;;;;;;2098479;28;20102;-44
2022/04/21 02:43:32;;;;;;;14.90;8.40;;;;;;;;;;2098457;28;20123;-45
2022/04/21 02:44:33;;;;;;;18.73;10.02;;;;;;;;;;2098416;28;20115;-44
2022/04/21 02:45:35;;;;;;;17.10;9.88;;;;;;;;;;2098719;28;20054;-63
2022/04/21 02:46:36;;;;;;;18.88;10.07;;;;;;;;;;2098369;28;20135;-63
2022/04/21 02:47:38;;;;;;;17.60;9.77;;;;;;;;;;2098581;28;20045;-63
2022/04/21 02:48:40;;;;;;;17.45;9.80;;;;;;;;;;2098460;28;20568;-63
2022/04/21 02:49:45;;;;;;;17.13;10.15;;;;;;;;;;2098584;28;20327;-63
2022/04/21 02:50:48;;;;;;;20.58;11.23;;;;;;;;;;2098392;28;20552;-62
2022/04/21 02:51:49;;;;;;;19.63;10.68;;;;;;;;;;2098469;28;20097;-64
2022/04/21 02:52:51;;;;;;;18.77;11.67;;;;;;;;;;2098533;28;20054;-65
2022/04/21 02:57:53;;;;;;;18.50;10.95;;;;;;;;;;2098390;28;20178;-44
2022/04/21 02:58:54;;;;;;;17.35;10.77;;;;;;;;;;2098383;28;20054;-45
2022/04/21 02:59:56;;;;;;;25.57;11.60;;;;;;;;;;2098293;28;20409;-44
2022/04/21 03:00:57;;;;;;;18.45;10.15;;;;;;;;;;2098292;28;20710;-45
2022/04/21 03:01:58;;;;;;;20.77;11.73;;;;;;;;;;2098268;28;20045;-45
2022/04/21 03:03:00;;;;;;;19.70;10.57;;;;;;;;;;2098338;28;20132;-44
2022/04/21 03:04:01;;;;;;;;;;;;;;;;;;2098710;28;20500;-44
2022/04/21 03:05:02;;;;;;;19.70;11.32;;;;;;;;;;2098255;28;19951;-44
2022/04/21 03:06:03;;;;;;;19.70;10.77;;;;;;;;;;2098308;28;20076;-44
2022/04/21 03:07:04;;;;;;;21.80;11.25;;;;;;;;;;2098333;28;20049;-45
2022/04/21 03:08:07;;;;;;;21.05;11.18;;;;;;;;;;2098442;28;20135;-45
2022/04/21 03:09:08;;;;;;;21.15;11.65;;;;;;;;;;2098220;28;20101;-45
2022/04/21 03:10:09;;;;;;;21.13;11.20;;;;;;;;;;2098550;28;20048;-45
2022/04/21 03:11:10;;;;;;;19.48;11.27;;;;;;;;;;2098406;28;20131;-44
2022/04/21 03:12:11;;;;;;;19.15;10.35;;;;;;;;;;2098284;28;20284;-44
2022/04/21 03:13:12;;;;;;;17.67;9.32;;;;;;;;;;2098348;28;20185;-45
2022/04/21 03:14:14;;;;;;;21.65;11.38;;;;;;;;;;2098164;28;20145;-45
2022/04/21 03:15:15;;;;;;;19.88;11.35;;;;;;;;;;2098286;28;20128;-45
2022/04/21 03:16:16;;;;;;;21.33;11.90;;;;;;;;;;2098236;28;20044;-45
2022/04/21 03:17:17;;;;;;;20.90;12.05;;;;;;;;;;2098472;28;20059;-45
2022/04/21 03:18:19;;;;;;;20.70;12.05;;;;;;;;;;2098300;28;20054;-44
2022/04/21 03:19:20;;;;;;;22.70;11.73;;;;;;;;;;2090110;28;20111;-44
2022/04/21 03:24:21;;;;;;;19.95;10.60;;;;;;;;;;2089257;28;20055;-44
2022/04/21 03:25:21;;;;;;;;;;;;;;;;;;2089602;28;20130;-44
2022/04/21 03:26:22;;;;;;;20.65;11.23;;;;;;;;;;2089090;28;19924;-44
2022/04/21 03:27:24;;;;;;;20.63;11.27;;;;;;;;;;2089534;28;20505;-44
2022/04/21 03:28:24;;;;;;;23.35;12.88;;;;;;;;;;2096005;28;20123;-45
2022/04/21 03:29:26;;;;;;;19.73;11.50;;;;;;;;;;2098327;28;20500;-44
2022/04/21 03:30:27;;;;;;;24.02;12.00;;;;;;;;;;2098360;28;20501;-61
2022/04/21 03:31:28;;;;;;;23.50;13.17;;;;;;;;;;2098230;28;20048;-62
2022/04/21 03:32:29;;;;;;;21.92;11.95;;;;;;;;;;2098289;28;20132;-62
2022/04/21 03:33:30;;;;;;;21.35;12.48;;;;;;;;;;2098327;28;20044;-44
2022/04/21 03:34:31;;;;;;;23.65;12.02;;;;;;;;;;2098180;28;20455;-45
2022/04/21 03:35:33;;;;;;;19.80;10.82;;;;;;;;;;2098246;28;20048;-45
2022/04/21 03:36:34;;;;;;;;;;;;;;;;;;2098535;28;20041;-45
2022/04/21 03:37:35;;;;;;;18.60;10.68;;;;;;;;;;2098258;28;19948;-44
2022/04/21 03:38:38;;;;;;;23.58;12.20;;;;;;;;;;2098036;28;20489;-45
2022/04/21 03:39:40;;;;;;;17.42;9.75;;;;;;;;;;2098024;28;20186;-45
2022/04/21 03:40:41;;;;;;;19.80;11.23;;;;;;;;;;2098314;28;20135;-44
2022/04/21 03:41:43;;;;;;;23.50;12.03;;;;;;;;;;2098252;28;20072;-44
2022/04/21 03:42:44;;;;;;;24.13;12.45;;;;;;;;;;2098133;28;20186;-44
2022/04/21 03:43:45;;;;;;;24.13;12.35;;;;;;;;;;2098078;28;20505;-44
2022/04/21 03:44:46;;;;;;;20.73;11.82;;;;;;;;;;2097733;28;20098;-45
2022/04/21 03:45:47;;;;;;;21.83;11.93;;;;;;;;;;2098134;28;20469;-45
2022/04/21 03:46:49;;;;;;;19.93;11.13;;;;;;;;;;2098145;28;20135;-45
2022/04/21 03:47:50;;;;;;;22.92;11.45;;;;;;;;;;2098019;28;20339;-44
2022/04/21 03:48:51;;;;;;;21.63;11.10;;;;;;;;;;2097948;28;20098;-45
2022/04/21 03:49:52;;;;;;;21.27;12.45;;;;;;;;;;2098044;28;20413;-45
2022/04/21 03:50:53;;;;;;;22.52;12.48;;;;;;;;;;2097905;28;20048;-45
2022/04/21 03:51:54;;;;;;;22.20;12.30;;;;;;;;;;2098081;28;20136;-44
2022/04/21 03:52:55;;;;;;;23.40;11.73;;;;;;;;;;2098134;28;20045;-44
2022/04/21 03:53:56;;;;;;;23.60;12.45;;;;;;;;;;2098075;28;20478;-62
2022/04/21 03:54:58;;;;;;;20.87;11.73;;;;;;;;;;2098341;28;20074;-62
2022/04/21 03:55:59;;;;;;;23.58;12.57;;;;;;;;;;2097937;28;20293;-62
2022/04/21 03:57:00;;;;;;;23.25;12.48;;;;;;;;;;2098123;28;20052;-62
2022/04/21 03:58:01;;;;;;;19.20;11.05;;;;;;;;;;2098055;28;20112;-62
2022/04/21 03:59:02;;;;;;;23.40;12.50;;;;;;;;;;2098250;28;20079;-44
2022/04/21 04:00:04;;;;;;;18.45;10.88;;;;;;;;;;2098078;28;20084;-45
2022/04/21 04:01:05;;;;;;;23.95;12.45;;;;;;;;;;2098005;28;20127;-44
2022/04/21 04:02:06;;;;;;;24.85;12.90;;;;;;;;;;2098098;28;20166;-45
2022/04/21 04:03:08;;;;;;;20.42;11.00;;;;;;;;;;2097957;28;20102;-44
2022/04/21 04:04:09;;;;;;;19.85;11.20;;;;;;;;;;2097834;28;20447;-45
2022/04/21 04:05:10;;;;;;;21.63;10.65;;;;;;;;;;2097853;28;20056;-44
2022/04/21 04:11:37;;;;;;;21.50;11.75;;;;;;;;;;2080375;28;20045;-45
2022/04/21 04:12:38;;;;;;;18.05;10.40;;;;;;;;;;2085930;28;20044;-45
2022/04/21 04:13:40;;;;;;;20.50;11.85;;;;;;;;;;2097928;28;20656;-45
2022/04/21 04:14:41;;;;;;;21.05;11.25;;;;;;;;;;2097851;28;20048;-45
2022/04/21 04:15:42;;;;;;;21.20;10.98;;;;;;;;;;2097805;28;20062;-44
2022/04/21 04:16:44;;;;;;;22.10;11.35;;;;;;;;;;2097995;28;20123;-45
2022/04/21 04:17:46;;;;;;;18.83;10.73;;;;;;;;;;2097811;28;20448;-44
2022/04/21 04:18:47;;;;;;;18.10;10.75;;;;;;;;;;2093852;28;20053;-45
2022/04/21 04:19:48;;;;;;;20.37;11.03;;;;;;;;;;2089628;28;20166;-44
2022/04/21 04:20:49;;;;;;;17.77;10.70;;;;;;;;;;2089692;28;20128;-44
2022/04/21 04:21:51;;;;;;;19.70;10.98;;;;;;;;;;2089698;28;20083;-62
2022/04/21 04:22:52;;;;;;;20.48;11.38;;;;;;;;;;2089882;28;20144;-45
2022/04/21 04:23:53;;;;;;;19.87;11.47;;;;;;;;;;2089425;28;20110;-45
2022/04/21 04:24:56;;;;;;;21.20;10.90;;;;;;;;;;2089593;28;20098;-45
2022/04/21 04:25:58;;;;;;;21.63;12.05;;;;;;;;;;2089438;28;20562;-44
2022/04/21 04:26:59;;;;;;;20.05;11.02;;;;;;;;;;2089562;28;20055;-44
2022/04/21 04:28:00;;;;;;;18.05;10.65;;;;;;;;;;2089592;28;20127;-45
2022/04/21 04:29:05;;;;;;;21.67;11.82;;;;;;;;;;2089429;28;20413;-44
2022/04/21 04:30:07;;;;;;;18.95;10.60;;;;;;;;;;2089482;28;20048;-44
2022/04/21 04:31:08;;;;;;;19.67;11.38;;;;;;;;;;2089598;28;20083;-45
2022/04/21 04:32:09;;;;;;;22.73;12.20;;;;;;;;;;2089546;28;20132;-45
2022/04/21 04:33:10;;;;;;;22.00;11.52;;;;;;;;;;2089596;28;20045;-44
2022/04/21 04:34:12;;;;;;;18.70;11.45;;;;;;;;;;2089508;28;20094;-44
2022/04/21 04:35:12;;;;;;;19.63;11.48;;;;;;;;;;2089435;28;20406;-44
2022/04/21 04:36:16;;;;;;;18.27;10.40;;;;;;;;;;2089451;28;20053;-45
2022/04/21 04:37:17;;;;;;;18.38;11.20;;;;;;;;;;2089409;28;20079;-44
2022/04/21 04:38:18;;;;;;;21.33;11.60;;;;;;;;;;2089434;28;20087;-45
2022/04/21 04:39:19;;;;;;;18.08;10.65;;;;;;;;;;2089332;28;20084;-45
2022/04/21 04:40:20;;;;;;;19.05;10.80;;;;;;;;;;2089553;28;20498;-44
2022/04/21 04:42:42;;;;;;;23.60;11.15;;;;;;;;;;2097842;28;20135;-44
2022/04/21 04:43:49;;;;;;;17.25;10.18;;;;;;;;;;2097656;28;20094;-44
2022/04/21 04:46:34;;;;;;;20.40;10.65;;;;;;;;;;2097816;28;20119;-44
2022/04/21 04:47:32;;;;;;;22.73;12.23;;;;;;;;;;2097832;28;20388;-44
2022/04/21 04:48:33;;;;;;;18.67;9.90;;;;;;;;;;2097522;28;20553;-45
2022/04/21 04:49:34;;;;;;;17.37;10.27;;;;;;;;;;2097946;28;20093;-62
2022/04/21 04:50:36;;;;;;;;;;;;;;;;;;2098081;28;20478;-62
2022/04/21 04:51:42;;;;;;;21.08;10.52;;;;;;;;;;2097843;28;19925;-62
2022/04/21 04:52:44;;;;;;;20.83;11.25;;;;;;;;;;2097566;28;20556;-62
2022/04/21 04:53:45;;;;;;;19.65;10.95;;;;;;;;;;2097734;28;20131;-62
2022/04/21 04:54:46;;;;;;;17.42;10.10;;;;;;;;;;2097642;28;20127;-62
2022/04/21 04:55:47;;;;;;;15.13;9.07;;;;;;;;;;2097772;28;20109;-61
2022/04/21 04:56:49;;;;;;;18.00;11.15;;;;;;;;;;2097635;28;20126;-62
2022/04/21 04:57:50;;;;;;;17.13;10.27;;;;;;;;;;2097604;28;20481;-62
2022/04/21 04:58:52;;;;;;;18.33;10.70;;;;;;;;;;2097547;28;20155;-61
2022/04/21 04:59:52;;;;;;;;;;;;;;;;;;2098233;28;20474;-62
2022/04/21 05:00:54;;;;;;;17.00;10.13;;;;;;;;;;2097626;28;19921;-62
2022/04/21 05:01:55;;;;;;;17.55;10.73;;;;;;;;;;2097542;28;20044;-62
2022/04/21 05:02:56;;;;;;;17.77;9.95;;;;;;;;;;2097069;28;20486;-62
2022/04/21 05:04:01;;;;;;;19.65;11.25;;;;;;;;;;2097407;28;20114;-62
2022/04/21 05:05:02;;;;;;;16.33;9.55;;;;;;;;;;2097653;28;20052;-62
2022/04/21 05:06:03;;;;;;;17.55;9.73;;;;;;;;;;2097593;28;20151;-62
2022/04/21 05:07:05;;;;;;;19.83;10.18;;;;;;;;;;2097515;28;20126;-64
2022/04/21 05:08:06;;;;;;;18.35;11.05;;;;;;;;;;2097573;28;20140;-63
2022/04/21 05:09:09;;;;;;;17.33;10.30;;;;;;;;;;2097579;28;20072;-62
2022/04/21 05:10:09;;;;;;;20.45;11.27;;;;;;;;;;2097549;28;20040;-63
2022/04/21 05:11:11;;;;;;;17.63;10.33;;;;;;;;;;2097474;28;20405;-62
2022/04/21 05:12:13;;;;;;;19.77;10.57;;;;;;;;;;2097589;28;20048;-62
2022/04/21 05:13:13;;;;;;;;;;;;;;;;;;2097848;28;20501;-61
2022/04/21 05:14:16;;;;;;;17.17;9.55;;;;;;;;;;2097392;28;20019;-62
2022/04/21 05:15:18;;;;;;;17.98;10.48;;;;;;;;;;2097441;28;20127;-62
2022/04/21 05:16:19;;;;;;;19.10;9.90;;;;;;;;;;2097601;28;20056;-61
2022/04/21 05:17:20;;;;;;;16.25;10.25;;;;;;;;;;2097655;28;20044;-61
2022/04/21 05:18:42;;;;;;;19.75;10.75;;;;;;;;;;2094108;28;20095;-61
2022/04/21 05:19:43;;;;;;;22.50;11.57;;;;;;;;;;2089163;28;20382;-62
2022/04/21 05:20:44;;;;;;;20.48;11.68;;;;;;;;;;2089304;28;20084;-61
2022/04/21 05:21:47;;;;;;;21.20;10.95;;;;;;;;;;2089136;28;20079;-62
2022/04/21 05:22:50;;;;;;;19.52;11.18;;;;;;;;;;2089255;28;20124;-61
2022/04/21 05:23:55;;;;;;;18.55;11.05;;;;;;;;;;2089240;28;20068;-45
2022/04/21 05:24:57;;;;;;;21.17;11.57;;;;;;;;;;2089062;28;20045;-44
2022/04/21 05:25:58;;;;;;;15.50;9.48;;;;;;;;;;2089031;28;20072;-45
2022/04/21 05:27:00;;;;;;;17.02;9.75;;;;;;;;;;2089130;28;20040;-45
2022/04/21 05:28:02;;;;;;;17.52;10.02;;;;;;;;;;2089159;28;20127;-45
2022/04/21 05:30:55;;;;;;;;;;;;;;;;;;2089437;28;20139;-44
2022/04/21 05:31:44;;;;;;;18.58;10.00;;;;;;;;;;2089124;28;20101;-44
2022/04/21 05:32:48;;;;;;;20.92;11.23;;;;;;;;;;2089146;28;20140;-45
2022/04/21 05:33:50;;;;;;;17.67;9.50;;;;;;;;;;2088938;28;20456;-45
2022/04/21 05:34:51;;;;;;;19.08;10.48;;;;;;;;;;2089186;28;20124;-45
2022/04/21 05:35:52;;;;;;;17.90;10.30;;;;;;;;;;2089052;28;20053;-45
2022/04/21 05:36:54;;;;;;;16.25;9.32;;;;;;;;;;2089372;28;20128;-45
2022/04/21 05:37:55;;;;;;;16.83;9.75;;;;;;;;;;2095802;28;20502;-45
2022/04/21 05:38:57;;;;;;;17.23;9.35;;;;;;;;;;2097224;28;20573;-45
2022/04/21 05:39:58;;;;;;;13.57;8.45;;;;;;;;;;2097379;28;20486;-45
2022/04/21 05:40:59;;;;;;;14.60;8.23;;;;;;;;;;2097389;28;20048;-45
2022/04/21 05:42:01;;;;;;;15.40;9.07;;;;;;;;;;2097271;28;20058;-45
2022/04/21 05:43:05;;;;;;;17.85;10.25;;;;;;;;;;2097394;28;20127;-44
2022/04/21 05:44:07;;;;;;;16.67;8.60;;;;;;;;;;2097206;28;20048;-45
2022/04/21 05:45:09;;;;;;;15.38;9.40;;;;;;;;;;2097365;28;20045;-45
2022/04/21 05:46:10;;;;;;;16.20;9.18;;;;;;;;;;2097405;28;20135;-44
2022/04/21 05:47:11;;;;;;;;;;;;;;;;;;2097847;28;20056;-45
2022/04/21 05:48:13;;;;;;;15.48;9.23;;;;;;;;;;2097325;28;20305;-44
2022/04/21 05:49:15;;;;;;;18.52;9.68;;;;;;;;;;2097124;28;20238;-45
2022/04/21 05:50:16;;;;;;;14.60;8.63;;;;;;;;;;2097467;28;20097;-45
2022/04/21 05:51:18;;;;;;;13.60;8.35;;;;;;;;;;2097186;28;20450;-45
2022/04/21 05:52:22;;;;;;;12.57;8.20;;;;;;;;;;2097503;28;20128;-44
2022/04/21 05:53:24;;;;;;;16.13;9.63;;;;;;;;;;2097170;28;20139;-44
2022/04/21 05:54:26;;;;;;;;;;;;;;;;;;2097891;28;20123;-44
2022/04/21 05:55:27;;;;;;;14.32;9.02;;;;;;;;;;2097402;28;19959;-45
2022/04/21 05:56:28;;;;;;;16.60;9.85;;;;;;;;;;2097145;28;20477;-45
2022/04/21 05:57:29;;;;;;;14.50;8.82;;;;;;;;;;2097396;28;20045;-62
2022/04/21 05:58:32;;;;;;;17.83;8.98;;;;;;;;;;2097208;28;20405;-62
2022/04/21 05:59:34;;;;;;;16.00;9.23;;;;;;;;;;2097288;28;20132;-62
2022/04/21 06:00:36;;;;;;;16.55;9.35;;;;;;;;;;2097274;28;20037;-45
2022/04/21 06:01:37;;;;;;;16.02;8.48;;;;;;;;;;2097329;28;20045;-44
2022/04/21 06:02:38;;;;;;;14.43;8.60;;;;;;;;;;2097142;28;20047;-44
2022/04/21 06:03:39;;;;;;;17.48;10.15;;;;;;;;;;2097337;28;20137;-44
2022/04/21 06:04:40;;;;;;;16.27;9.57;;;;;;;;;;2097208;28;20319;-44
2022/04/21 06:05:41;;;;;;;16.38;9.32;;;;;;;;;;2097289;28;20066;-45
2022/04/21 06:06:43;;;;;;;15.23;9.13;;;;;;;;;;2097161;28;20413;-44
2022/04/21 06:07:44;;;;;;;15.82;9.15;;;;;;;;;;2097285;28;20129;-45
2022/04/21 06:08:45;;;;;;;15.23;9.53;;;;;;;;;;2097183;28;20050;-44
2022/04/21 06:09:46;;;;;;;17.42;10.43;;;;;;;;;;2097246;28;20372;-44
2022/04/21 06:10:47;;;;;;;14.70;8.90;;;;;;;;;;2097285;28;20505;-44
2022/04/21 06:11:49;;;;;;;17.60;9.00;;;;;;;;;;2097086;28;20445;-45
2022/04/21 06:12:50;;;;;;;16.50;9.00;;;;;;;;;;2097235;28;20048;-44
2022/04/21 06:13:52;;;;;;;15.57;9.50;;;;;;;;;;2097014;28;20044;-45
2022/04/21 06:14:53;;;;;;;15.70;9.45;;;;;;;;;;2097971;28;20518;-44
2022/04/21 06:15:54;;;;;;;16.85;10.82;;;;;;;;;;2098558;28;20048;-44
2022/04/21 06:16:55;;;;;;;19.33;9.65;;;;;;;;;;2098623;28;20386;-45
2022/04/21 06:17:56;;;;;;;17.20;10.20;;;;;;;;;;2098585;28;20059;-44
2022/04/21 06:18:57;;;;;;;18.05;10.23;;;;;;;;;;2093105;28;20143;-44
2022/04/21 06:19:58;;;;;;;16.98;9.50;;;;;;;;;;2090201;28;20565;-44
2022/04/21 06:21:00;;;;;;;17.87;10.30;;;;;;;;;;2090275;28;20049;-44
2022/04/21 06:22:01;;;;;;;17.63;10.30;;;;;;;;;;2090194;28;20077;-44
2022/04/21 06:23:03;;;;;;;16.80;9.40;;;;;;;;;;2090200;28;20092;-44
2022/04/21 06:24:04;;;;;;;15.15;9.73;;;;;;;;;;2090365;28;20053;-44
2022/04/21 06:25:05;;;;;;;17.42;10.98;;;;;;;;;;2090357;28;20120;-44
2022/04/21 06:26:07;;;;;;;16.98;9.65;;;;;;;;;;2090264;28;20052;-44
2022/04/21 06:27:08;;;;;;;17.38;9.10;;;;;;;;;;2090152;28;20458;-44